createdAt,value
2017-09-04T20:14:31.591Z,16.37
2017-09-04T20:16:59.508Z,16.30
2017-09-04T20:19:27.432Z,16.27
2017-09-04T20:21:55.368Z,16.21
2017-09-04T20:24:23.277Z,16.21
2017-09-04T20:26:51.213Z,16.24
2017-09-04T20:29:19.120Z,16.23
2017-09-04T20:31:47.053Z,16.25
2017-09-04T20:34:15.163Z,16.21
2017-09-04T20:36:43.072Z,16.17
2017-09-04T20:39:10.979Z,16.15
2017-09-04T20:41:38.960Z,16.17
2017-09-04T20:44:06.882Z,16.21
2017-09-04T20:46:34.795Z,16.10
2017-09-04T20:49:02.777Z,16.13
2017-09-04T20:51:30.710Z,15.99
2017-09-04T20:53:58.718Z,15.96
2017-09-04T20:56:26.628Z,15.99
2017-09-04T20:59:09.655Z,15.89
2017-09-04T21:01:37.576Z,15.90
2017-09-04T21:04:05.492Z,15.91
2017-09-04T21:09:34.381Z,15.83
2017-09-04T21:12:02.288Z,15.75
2017-09-04T21:14:30.206Z,15.75
2017-09-04T21:16:58.152Z,15.77
2017-09-04T21:19:26.215Z,15.76
2017-09-04T21:21:54.133Z,15.76
2017-09-04T21:24:22.024Z,15.67
2017-09-04T21:26:49.946Z,15.69
2017-09-04T21:29:17.862Z,15.60
2017-09-04T21:31:45.755Z,15.53
2017-09-04T21:34:13.684Z,15.46
2017-09-04T21:36:41.589Z,15.38
2017-09-04T21:39:09.515Z,15.38
2017-09-04T21:41:37.411Z,15.32
2017-09-04T21:44:05.312Z,15.21
2017-09-04T21:46:33.281Z,15.23
2017-09-04T21:49:01.234Z,15.14
2017-09-04T21:51:29.162Z,15.21
2017-09-04T21:53:57.072Z,15.15
2017-09-04T21:56:24.966Z,15.16
2017-09-04T21:58:52.878Z,15.06
2017-09-04T22:01:20.886Z,15.11
2017-09-04T22:03:48.810Z,15.12
2017-09-04T22:06:16.726Z,15.01
2017-09-04T22:08:44.664Z,14.90
2017-09-04T22:11:12.583Z,14.91
2017-09-04T22:13:40.511Z,14.92
2017-09-04T22:16:08.482Z,14.90
2017-09-04T22:18:36.452Z,14.75
2017-09-04T22:21:04.655Z,14.79
2017-09-04T22:23:32.611Z,14.71
2017-09-04T22:26:00.539Z,14.68
2017-09-04T22:28:29.156Z,14.64
2017-09-04T22:30:57.081Z,14.68
2017-09-04T22:33:24.984Z,14.67
2017-09-04T22:35:52.920Z,14.63
2017-09-04T22:38:20.834Z,14.58
2017-09-04T22:40:48.774Z,14.57
2017-09-04T22:43:16.698Z,14.57
2017-09-04T22:45:44.613Z,14.53
2017-09-04T22:48:12.513Z,14.40
2017-09-04T22:50:40.426Z,14.41
2017-09-04T22:53:08.326Z,14.35
2017-09-04T22:55:36.239Z,14.27
2017-09-04T22:58:04.790Z,14.14
2017-09-04T23:00:32.703Z,14.16
2017-09-04T23:03:00.632Z,14.07
2017-09-04T23:05:28.527Z,14.03
2017-09-04T23:07:56.465Z,13.87
2017-09-04T23:10:24.357Z,13.87
2017-09-04T23:12:52.272Z,13.80
2017-09-04T23:15:20.184Z,13.83
2017-09-04T23:17:48.105Z,13.71
2017-09-04T23:20:16.042Z,13.73
2017-09-04T23:22:43.935Z,13.69
2017-09-04T23:25:11.975Z,13.67
2017-09-04T23:27:40.086Z,13.68
2017-09-04T23:30:07.996Z,13.63
2017-09-04T23:32:35.913Z,13.69
2017-09-04T23:35:03.817Z,13.67
2017-09-04T23:37:31.730Z,13.65
2017-09-04T23:39:59.631Z,13.59
2017-09-04T23:42:27.538Z,13.64
2017-09-04T23:44:55.454Z,13.56
2017-09-04T23:47:23.448Z,13.56
2017-09-04T23:49:51.366Z,13.51
2017-09-04T23:52:19.273Z,13.52
2017-09-04T23:54:47.202Z,13.58
2017-09-04T23:57:15.112Z,13.54
2017-09-04T23:59:43.110Z,13.53
